createdAt,value
2018-09-01T00:00:54.889Z,1016.71
2018-09-01T00:01:55.473Z,1016.80
2018-09-01T00:02:56.109Z,1016.80
2018-09-01T00:03:56.696Z,1016.73
2018-09-01T00:04:57.283Z,1016.77
2018-09-01T00:05:57.916Z,1016.77
2018-09-01T00:06:58.495Z,1016.74
2018-09-01T00:07:59.136Z,1016.70
2018-09-01T00:08:59.722Z,1016.79
2018-09-01T00:10:00.307Z,1016.78
2018-09-01T00:11:00.893Z,1016.74
2018-09-01T00:12:01.477Z,1016.74
2018-09-01T00:13:02.106Z,1016.73
2018-09-01T00:14:02.696Z,1016.70
2018-09-01T00:15:03.376Z,1016.67
2018-09-01T00:16:03.956Z,1016.75
2018-09-01T00:17:04.545Z,1016.71
2018-09-01T00:18:05.130Z,1016.69
2018-09-01T00:19:05.712Z,1016.71
2018-09-01T00:20:06.298Z,1016.73
2018-09-01T00:21:06.885Z,1016.67
2018-09-01T00:22:07.520Z,1016.71
2018-09-01T00:23:08.104Z,1016.70
2018-09-01T00:24:08.780Z,1016.68
2018-09-01T00:25:09.366Z,1016.66
2018-09-01T00:26:09.955Z,1016.65
2018-09-01T00:27:10.542Z,1016.56
2018-09-01T00:28:11.126Z,1016.58
2018-09-01T00:29:11.712Z,1016.62
2018-09-01T00:30:12.291Z,1016.64
2018-09-01T00:31:12.928Z,1016.69
2018-09-01T00:32:13.512Z,1016.63
2018-09-01T00:33:14.097Z,1016.61
2018-09-01T00:34:14.684Z,1016.67
2018-09-01T00:35:15.270Z,1016.72
2018-09-01T00:36:15.850Z,1016.61
2018-09-01T00:37:16.484Z,1016.57
2018-09-01T00:38:17.068Z,1016.65
2018-09-01T00:39:17.661Z,1016.56
2018-09-01T00:41:02.755Z,1016.57
2018-09-01T00:42:03.340Z,1016.57
2018-09-01T00:43:03.976Z,1016.62
2018-09-01T00:44:04.562Z,1016.61
2018-09-01T00:45:05.149Z,1016.61
2018-09-01T00:46:05.785Z,1016.57
2018-09-01T00:47:06.370Z,1016.64
2018-09-01T00:48:07.000Z,1016.58
2018-09-01T00:49:07.582Z,1016.59
2018-09-01T00:50:08.167Z,1016.66
2018-09-01T00:51:08.750Z,1016.67
2018-09-01T00:52:09.337Z,1016.70
2018-09-01T00:53:09.923Z,1016.65
2018-09-01T00:54:10.556Z,1016.65
2018-09-01T00:55:11.193Z,1016.63
2018-09-01T00:56:11.774Z,1016.59
2018-09-01T00:57:12.361Z,1016.58
2018-09-01T00:58:12.993Z,1016.59
2018-09-01T00:59:13.575Z,1016.60
2018-09-01T01:00:14.162Z,1016.55
2018-09-01T01:01:14.797Z,1016.70
2018-09-01T01:02:15.379Z,1016.62
2018-09-01T01:03:15.961Z,1016.63
2018-09-01T01:04:16.543Z,1016.67
2018-09-01T01:05:17.130Z,1016.60
2018-09-01T01:06:17.709Z,1016.59
2018-09-01T01:07:18.288Z,1016.62
2018-09-01T01:08:18.878Z,1016.59
2018-09-01T01:09:19.457Z,1016.67
2018-09-01T01:10:20.048Z,1016.62
2018-09-01T01:11:20.629Z,1016.67
2018-09-01T01:12:21.215Z,1016.65
2018-09-01T01:13:21.844Z,1016.65
2018-09-01T01:14:22.480Z,1016.70
2018-09-01T01:15:23.065Z,1016.76
2018-09-01T01:16:23.650Z,1016.75
2018-09-01T01:17:24.235Z,1016.81
2018-09-01T01:18:24.817Z,1016.86
2018-09-01T01:19:25.416Z,1016.91
2018-09-01T01:20:26.087Z,1016.87
2018-09-01T01:21:26.671Z,1016.78
2018-09-01T01:22:27.255Z,1016.72
2018-09-01T01:24:12.349Z,1016.71
2018-09-01T01:25:12.934Z,1016.70
2018-09-01T01:26:13.518Z,1016.76
2018-09-01T01:27:14.104Z,1016.69
2018-09-01T01:28:14.682Z,1016.69
2018-09-01T01:29:15.272Z,1016.62
2018-09-01T01:30:15.860Z,1016.64
2018-09-01T01:31:16.444Z,1016.54
2018-09-01T01:32:17.022Z,1016.55
2018-09-01T01:33:17.659Z,1016.48
2018-09-01T01:34:18.299Z,1016.48
2018-09-01T01:35:18.883Z,1016.56
2018-09-01T01:36:19.668Z,1016.57
2018-09-01T01:37:20.254Z,1016.51
2018-09-01T01:38:20.834Z,1016.50
2018-09-01T01:39:21.414Z,1016.53
2018-09-01T01:40:22.003Z,1016.58
2018-09-01T01:41:22.588Z,1016.55
2018-09-01T01:42:23.175Z,1016.56
2018-09-01T01:43:23.808Z,1016.59
2018-09-01T01:44:24.393Z,1016.52
2018-09-01T01:45:24.970Z,1016.54
2018-09-01T01:46:25.559Z,1016.49
2018-09-01T01:47:26.144Z,1016.55
2018-09-01T01:48:26.730Z,1016.54
2018-09-01T01:49:27.363Z,1016.51
2018-09-01T01:50:27.936Z,1016.59
2018-09-01T01:51:28.519Z,1016.60
2018-09-01T01:52:29.102Z,1016.61
2018-09-01T01:53:29.738Z,1016.57
2018-09-01T01:54:30.329Z,1016.55
2018-09-01T01:55:30.913Z,1016.58
2018-09-01T01:56:31.551Z,1016.40
2018-09-01T01:57:32.135Z,1016.45
2018-09-01T01:58:32.770Z,1016.50
2018-09-01T01:59:33.356Z,1016.38
2018-09-01T02:00:33.943Z,1016.44
2018-09-01T02:01:34.529Z,1016.43
2018-09-01T02:02:35.116Z,1016.38
2018-09-01T02:03:35.702Z,1016.42
2018-09-01T02:04:36.289Z,1016.45
2018-09-01T02:05:36.874Z,1016.40
2018-09-01T02:07:21.970Z,1016.35
2018-09-01T02:08:22.754Z,1016.41
2018-09-01T02:09:23.337Z,1016.41
2018-09-01T02:10:23.925Z,1016.34
2018-09-01T02:11:24.505Z,1016.37
2018-09-01T02:12:25.143Z,1016.39
2018-09-01T02:13:25.731Z,1016.47
2018-09-01T02:14:26.368Z,1016.39
2018-09-01T02:15:26.952Z,1016.39
2018-09-01T02:16:27.539Z,1016.38
2018-09-01T02:17:28.118Z,1016.44
2018-09-01T02:18:28.703Z,1016.45
2018-09-01T02:19:29.287Z,1016.42
2018-09-01T02:20:29.872Z,1016.39
2018-09-01T02:21:30.455Z,1016.42
2018-09-01T02:22:31.036Z,1016.49
2018-09-01T02:23:31.624Z,1016.48
2018-09-01T02:24:32.208Z,1016.51
2018-09-01T02:25:32.795Z,1016.44
2018-09-01T02:26:33.378Z,1016.48
2018-09-01T02:27:34.012Z,1016.47
2018-09-01T02:28:34.597Z,1016.44
2018-09-01T02:29:35.182Z,1016.44
2018-09-01T02:30:35.764Z,1016.46
2018-09-01T02:31:36.352Z,1016.41
2018-09-01T02:32:36.987Z,1016.39
2018-09-01T02:33:37.573Z,1016.38
2018-09-01T02:34:38.204Z,1016.35
2018-09-01T02:35:38.789Z,1016.29
2018-09-01T02:36:39.381Z,1016.41
2018-09-01T02:37:39.958Z,1016.36
2018-09-01T02:38:40.546Z,1016.34
2018-09-01T02:39:41.132Z,1016.34
2018-09-01T02:40:41.717Z,1016.40
2018-09-01T02:41:42.304Z,1016.42
2018-09-01T02:42:42.890Z,1016.43
2018-09-01T02:43:43.471Z,1016.35
2018-09-01T02:44:44.101Z,1016.31
2018-09-01T02:45:44.684Z,1016.29
2018-09-01T02:46:45.270Z,1016.24
2018-09-01T02:47:45.907Z,1016.28
2018-09-01T02:48:46.545Z,1016.31
2018-09-01T02:50:31.696Z,1016.28
2018-09-01T02:51:32.282Z,1016.35
2018-09-01T02:52:32.865Z,1016.25
2018-09-01T02:53:33.453Z,1016.26
2018-09-01T02:54:34.086Z,1016.29
2018-09-01T02:55:34.674Z,1016.33
2018-09-01T02:56:35.307Z,1016.26
2018-09-01T02:57:35.890Z,1016.32
2018-09-01T02:58:36.476Z,1016.36
2018-09-01T02:59:37.057Z,1016.32
2018-09-01T03:00:37.645Z,1016.34
2018-09-01T03:01:38.228Z,1016.33
2018-09-01T03:02:38.807Z,1016.28
2018-09-01T03:03:39.444Z,1016.24
2018-09-01T03:04:40.029Z,1016.31
2018-09-01T03:05:40.615Z,1016.32
2018-09-01T03:06:41.201Z,1016.29
2018-09-01T03:07:41.835Z,1016.31
2018-09-01T03:08:42.471Z,1016.29
2018-09-01T03:09:43.060Z,1016.32
2018-09-01T03:10:43.642Z,1016.27
2018-09-01T03:11:44.273Z,1016.22
2018-09-01T03:12:44.861Z,1016.13
2018-09-01T03:13:45.446Z,1016.18
2018-09-01T03:14:46.031Z,1016.25
2018-09-01T03:15:46.614Z,1016.22
2018-09-01T03:16:47.196Z,1016.25
2018-09-01T03:17:47.780Z,1016.28
2018-09-01T03:18:48.419Z,1016.30
2018-09-01T03:19:49.004Z,1016.27
2018-09-01T03:20:49.589Z,1016.22
2018-09-01T03:21:50.177Z,1016.15
2018-09-01T03:22:50.809Z,1016.22
2018-09-01T03:23:51.397Z,1016.27
2018-09-01T03:24:51.981Z,1016.19
2018-09-01T03:25:52.569Z,1016.20
2018-09-01T03:26:53.153Z,1016.21
2018-09-01T03:27:53.733Z,1016.19
2018-09-01T03:28:54.366Z,1016.19
2018-09-01T03:29:54.952Z,1016.19
2018-09-01T03:30:55.536Z,1016.16
2018-09-01T03:31:56.157Z,1016.05
2018-09-01T03:33:41.217Z,1016.16
2018-09-01T03:34:41.801Z,1016.16
2018-09-01T03:35:42.435Z,1016.14
2018-09-01T03:36:43.074Z,1016.15
2018-09-01T03:37:43.660Z,1016.21
2018-09-01T03:38:44.295Z,1016.19
2018-09-01T03:39:44.880Z,1016.13
2018-09-01T03:40:45.516Z,1016.16
2018-09-01T03:41:46.098Z,1016.19
2018-09-01T03:42:46.689Z,1016.13
2018-09-01T03:43:47.274Z,1016.11
2018-09-01T03:44:47.856Z,1016.12
2018-09-01T03:45:48.445Z,1016.11
2018-09-01T03:46:49.078Z,1016.15
2018-09-01T03:47:49.666Z,1016.13
2018-09-01T03:48:50.248Z,1016.18
2018-09-01T03:49:50.832Z,1016.11
2018-09-01T03:50:51.418Z,1016.29
2018-09-01T03:51:52.054Z,1016.14
2018-09-01T03:52:52.642Z,1016.21
2018-09-01T03:53:53.277Z,1016.21
2018-09-01T03:54:53.855Z,1016.16
2018-09-01T03:55:54.436Z,1016.16
2018-09-01T03:56:55.015Z,1016.14
2018-09-01T03:57:55.602Z,1016.14
2018-09-01T03:58:56.188Z,1016.17
2018-09-01T03:59:56.774Z,1016.14
2018-09-01T04:00:57.357Z,1016.14
2018-09-01T04:01:57.936Z,1016.04
2018-09-01T04:02:58.520Z,1016.08
2018-09-01T04:03:59.162Z,1016.03
2018-09-01T04:04:59.794Z,1016.05
2018-09-01T04:06:00.424Z,1016.01
2018-09-01T04:07:01.013Z,1015.94
2018-09-01T04:08:01.598Z,1015.95
2018-09-01T04:09:02.182Z,1015.98
2018-09-01T04:10:02.769Z,1015.99
2018-09-01T04:11:03.398Z,1015.97
2018-09-01T04:12:03.980Z,1015.99
2018-09-01T04:13:04.617Z,1015.93
2018-09-01T04:14:05.204Z,1015.98
2018-09-01T04:15:05.790Z,1016.03
2018-09-01T04:16:50.884Z,1015.98
2018-09-01T04:17:51.559Z,1015.92
2018-09-01T04:18:52.141Z,1015.84
2018-09-01T04:19:52.726Z,1015.90
2018-09-01T04:20:53.309Z,1015.88
2018-09-01T04:21:53.938Z,1015.85
2018-09-01T04:22:54.525Z,1015.85
2018-09-01T04:23:55.162Z,1015.88
2018-09-01T04:24:55.745Z,1015.84
2018-09-01T04:25:56.330Z,1015.89
2018-09-01T04:26:56.915Z,1015.92
2018-09-01T04:27:57.549Z,1015.88
2018-09-01T04:28:58.136Z,1015.91
2018-09-01T04:29:58.768Z,1015.95
2018-09-01T04:30:59.347Z,1015.90
2018-09-01T04:32:00.012Z,1015.96
2018-09-01T04:33:00.566Z,1015.87
2018-09-01T04:34:01.154Z,1015.87
2018-09-01T04:35:01.880Z,1015.90
2018-09-01T04:36:02.470Z,1015.87
2018-09-01T04:37:03.051Z,1015.87
2018-09-01T04:38:03.631Z,1015.92
2018-09-01T04:39:04.219Z,1015.85
2018-09-01T04:40:04.848Z,1015.86
2018-09-01T04:41:05.436Z,1015.81
2018-09-01T04:42:06.016Z,1015.85
2018-09-01T04:43:06.600Z,1015.89
2018-09-01T04:44:07.184Z,1015.79
2018-09-01T04:45:07.766Z,1015.85
2018-09-01T04:46:08.404Z,1015.87
2018-09-01T04:47:09.044Z,1015.87
2018-09-01T04:48:09.620Z,1015.96
2018-09-01T04:49:10.200Z,1015.89
2018-09-01T04:50:10.835Z,1015.92
2018-09-01T04:51:11.423Z,1015.89
2018-09-01T04:52:12.008Z,1015.86
2018-09-01T04:53:12.590Z,1015.89
2018-09-01T04:54:13.172Z,1015.88
2018-09-01T04:55:13.752Z,1015.86
2018-09-01T04:56:14.340Z,1015.89
2018-09-01T04:57:14.920Z,1015.79
2018-09-01T04:58:15.560Z,1015.87
2018-09-01T05:00:00.657Z,1015.84
2018-09-01T05:01:01.419Z,1015.88
2018-09-01T05:02:01.864Z,1015.89
2018-09-01T05:03:02.454Z,1015.88
2018-09-01T05:04:03.084Z,1015.93
2018-09-01T05:05:03.670Z,1015.84
2018-09-01T05:06:04.303Z,1015.84
2018-09-01T05:07:04.888Z,1015.88
2018-09-01T05:08:05.468Z,1015.84
2018-09-01T05:09:06.051Z,1015.88
2018-09-01T05:10:06.640Z,1015.83
2018-09-01T05:11:07.274Z,1015.85
2018-09-01T05:12:07.859Z,1015.83
2018-09-01T05:13:08.494Z,1015.83
2018-09-01T05:14:09.079Z,1015.85
2018-09-01T05:15:09.663Z,1015.84
2018-09-01T05:16:10.249Z,1015.83
2018-09-01T05:17:10.836Z,1015.84
2018-09-01T05:18:11.421Z,1015.83
2018-09-01T05:19:12.006Z,1015.87
2018-09-01T05:20:12.592Z,1015.84
2018-09-01T05:21:13.173Z,1015.88
2018-09-01T05:22:13.795Z,1015.79
2018-09-01T05:23:14.427Z,1015.87
2018-09-01T05:24:15.060Z,1015.82
2018-09-01T05:25:15.639Z,1015.80
2018-09-01T05:26:16.223Z,1015.78
2018-09-01T05:27:16.811Z,1015.77
2018-09-01T05:28:17.390Z,1015.77
2018-09-01T05:29:17.978Z,1015.71
2018-09-01T05:30:18.662Z,1015.71
2018-09-01T05:31:19.350Z,1015.68
2018-09-01T05:32:19.925Z,1015.69
2018-09-01T05:33:20.515Z,1015.71
2018-09-01T05:34:21.102Z,1015.78
2018-09-01T05:35:21.833Z,1015.74
2018-09-01T05:36:22.443Z,1015.73
2018-09-01T05:37:22.999Z,1015.75
2018-09-01T05:38:23.583Z,1015.80
2018-09-01T05:39:24.220Z,1015.73
2018-09-01T05:40:24.796Z,1015.73
2018-09-01T05:41:25.387Z,1015.77
2018-09-01T05:43:10.480Z,1015.72
2018-09-01T05:44:11.065Z,1015.84
2018-09-01T05:45:11.647Z,1015.77
2018-09-01T05:46:12.236Z,1015.77
2018-09-01T05:47:12.817Z,1015.79
2018-09-01T05:48:13.652Z,1015.79
2018-09-01T05:49:14.238Z,1015.79
2018-09-01T05:50:14.874Z,1015.84
2018-09-01T05:51:15.454Z,1015.75
2018-09-01T05:52:16.091Z,1015.81
2018-09-01T05:53:16.722Z,1015.83
2018-09-01T05:54:17.307Z,1015.74
2018-09-01T05:55:17.942Z,1015.79
2018-09-01T05:56:18.524Z,1015.82
2018-09-01T05:57:19.101Z,1015.78
2018-09-01T05:58:19.683Z,1015.82
2018-09-01T05:59:20.273Z,1015.78
2018-09-01T06:00:20.858Z,1015.85
2018-09-01T06:01:21.438Z,1015.74
2018-09-01T06:02:22.028Z,1015.83
2018-09-01T06:03:22.660Z,1015.88
2018-09-01T06:04:23.240Z,1015.85
2018-09-01T06:05:23.826Z,1015.80
2018-09-01T06:06:24.580Z,1015.88
2018-09-01T06:07:25.091Z,1015.92
2018-09-01T06:08:25.670Z,1015.80
2018-09-01T06:09:26.259Z,1015.83
2018-09-01T06:10:26.840Z,1015.82
2018-09-01T06:11:27.475Z,1015.76
2018-09-01T06:12:28.058Z,1015.82
2018-09-01T06:13:28.796Z,1015.79
2018-09-01T06:14:29.381Z,1015.84
2018-09-01T06:15:29.967Z,1015.92
2018-09-01T06:16:30.552Z,1015.95
2018-09-01T06:17:31.312Z,1015.97
2018-09-01T06:18:31.821Z,1015.96
2018-09-01T06:19:32.407Z,1015.93
2018-09-01T06:20:32.992Z,1016.01
2018-09-01T06:21:33.624Z,1016.07
2018-09-01T06:22:34.257Z,1016.00
2018-09-01T06:23:35.040Z,1015.99
2018-09-01T06:24:35.626Z,1015.94
2018-09-01T06:26:20.721Z,1015.92
2018-09-01T06:27:21.308Z,1015.99
2018-09-01T06:28:21.889Z,1015.90
2018-09-01T06:29:22.476Z,1015.97
2018-09-01T06:30:23.066Z,1015.98
2018-09-01T06:31:23.651Z,1016.01
2018-09-01T06:32:24.238Z,1016.03
2018-09-01T06:33:24.878Z,1016.02
2018-09-01T06:34:25.456Z,1015.93
2018-09-01T06:35:26.038Z,1015.97
2018-09-01T06:36:26.626Z,1016.03
2018-09-01T06:37:27.250Z,1015.97
2018-09-01T06:38:27.793Z,1016.03
2018-09-01T06:39:28.382Z,1015.92
2018-09-01T06:40:29.014Z,1015.91
2018-09-01T06:41:29.589Z,1015.99
2018-09-01T06:42:30.179Z,1015.94
2018-09-01T06:43:30.764Z,1015.99
2018-09-01T06:44:31.349Z,1015.90
2018-09-01T06:45:31.984Z,1015.96
2018-09-01T06:46:32.569Z,1015.93
2018-09-01T06:47:33.144Z,1015.93
2018-09-01T06:48:33.732Z,1015.93
2018-09-01T06:49:34.360Z,1015.91
2018-09-01T06:50:34.945Z,1015.90
2018-09-01T06:51:35.542Z,1015.91
2018-09-01T06:52:36.105Z,1015.97
2018-09-01T06:53:36.689Z,1015.97
2018-09-01T06:54:37.273Z,1015.97
2018-09-01T06:55:37.856Z,1015.91
2018-09-01T06:56:38.442Z,1015.93
2018-09-01T06:57:39.030Z,1015.95
2018-09-01T06:58:39.613Z,1015.91
2018-09-01T06:59:40.201Z,1015.91
2018-09-01T07:00:40.838Z,1015.93
2018-09-01T07:01:41.426Z,1015.94
2018-09-01T07:02:42.011Z,1015.97
2018-09-01T07:03:42.597Z,1015.91
2018-09-01T07:04:43.229Z,1015.91
2018-09-01T07:05:43.820Z,1015.91
2018-09-01T07:06:44.393Z,1015.89
2018-09-01T07:07:44.983Z,1015.98
2018-09-01T07:09:30.133Z,1015.87
2018-09-01T07:10:30.724Z,1015.92
2018-09-01T07:11:31.355Z,1015.89
2018-09-01T07:12:31.941Z,1015.98
2018-09-01T07:13:32.521Z,1015.98
2018-09-01T07:14:33.157Z,1015.96
2018-09-01T07:15:33.744Z,1015.90
2018-09-01T07:16:34.328Z,1015.96
2018-09-01T07:17:34.915Z,1015.94
2018-09-01T07:18:35.495Z,1015.93
2018-09-01T07:19:36.085Z,1015.95
2018-09-01T07:20:36.676Z,1016.00
2018-09-01T07:21:37.352Z,1015.90
2018-09-01T07:22:37.937Z,1015.93
2018-09-01T07:23:38.522Z,1015.89
2018-09-01T07:24:39.157Z,1015.98
2018-09-01T07:25:39.797Z,1015.90
2018-09-01T07:26:40.379Z,1016.00
2018-09-01T07:27:40.964Z,1015.98
2018-09-01T07:28:41.548Z,1016.00
2018-09-01T07:29:42.133Z,1015.91
2018-09-01T07:30:42.891Z,1015.92
2018-09-01T07:31:43.304Z,1015.93
2018-09-01T07:32:43.880Z,1016.08
2018-09-01T07:33:44.467Z,1015.98
2018-09-01T07:34:45.053Z,1016.03
2018-09-01T07:35:45.638Z,1015.97
2018-09-01T07:36:46.269Z,1016.00
2018-09-01T07:37:46.853Z,1016.03
2018-09-01T07:38:47.439Z,1015.99
2018-09-01T07:39:48.024Z,1015.97
2018-09-01T07:40:48.611Z,1016.03
2018-09-01T07:41:49.194Z,1016.01
2018-09-01T07:42:49.840Z,1015.98
2018-09-01T07:43:50.468Z,1015.99
2018-09-01T07:44:51.051Z,1016.02
2018-09-01T07:45:51.635Z,1016.02
2018-09-01T07:46:52.271Z,1015.99
2018-09-01T07:47:52.849Z,1016.00
2018-09-01T07:48:53.486Z,1015.97
2018-09-01T07:49:54.079Z,1016.00
2018-09-01T07:50:54.653Z,1016.02
2018-09-01T07:52:39.800Z,1016.02
2018-09-01T07:53:40.385Z,1015.95
2018-09-01T07:54:41.019Z,1016.02
2018-09-01T07:55:41.556Z,1015.94
2018-09-01T07:56:42.137Z,1016.03
2018-09-01T07:57:42.723Z,1016.03
2018-09-01T07:58:43.355Z,1015.92
2018-09-01T07:59:43.945Z,1016.06
2018-09-01T08:00:44.518Z,1016.09
2018-09-01T08:01:45.102Z,1016.06
2018-09-01T08:02:45.691Z,1016.10
2018-09-01T08:03:46.276Z,1016.15
2018-09-01T08:04:46.910Z,1016.15
2018-09-01T08:05:47.502Z,1016.10
2018-09-01T08:06:48.128Z,1016.09
2018-09-01T08:07:48.709Z,1015.99
2018-09-01T08:08:49.346Z,1016.06
2018-09-01T08:09:49.932Z,1016.06
2018-09-01T08:10:50.511Z,1016.07
2018-09-01T08:11:51.097Z,1016.02
2018-09-01T08:12:51.683Z,1016.01
2018-09-01T08:13:52.345Z,1016.03
2018-09-01T08:14:52.902Z,1016.01
2018-09-01T08:15:53.532Z,1016.04
2018-09-01T08:16:54.119Z,1015.99
2018-09-01T08:17:54.699Z,1016.02
2018-09-01T08:18:55.289Z,1016.07
2018-09-01T08:19:55.918Z,1016.11
2018-09-01T08:20:56.501Z,1016.12
2018-09-01T08:21:57.084Z,1016.04
2018-09-01T08:22:57.733Z,1016.13
2018-09-01T08:23:58.354Z,1016.05
2018-09-01T08:24:58.989Z,1016.14
2018-09-01T08:25:59.615Z,1016.10
2018-09-01T08:27:00.159Z,1016.04
2018-09-01T08:28:00.745Z,1016.04
2018-09-01T08:29:01.380Z,1016.11
2018-09-01T08:30:01.967Z,1016.02
2018-09-01T08:31:02.557Z,1016.04
2018-09-01T08:32:03.184Z,1016.08
2018-09-01T08:33:03.768Z,1016.12
2018-09-01T08:34:04.357Z,1016.09
2018-09-01T08:35:49.448Z,1016.10
2018-09-01T08:36:50.092Z,1016.07
2018-09-01T08:37:50.662Z,1016.11
2018-09-01T08:38:51.250Z,1016.14
2018-09-01T08:39:51.832Z,1016.09
2018-09-01T08:40:52.468Z,1016.16
2018-09-01T08:41:53.103Z,1016.10
2018-09-01T08:42:53.690Z,1016.13
2018-09-01T08:43:54.271Z,1016.12
2018-09-01T08:44:54.859Z,1016.19
2018-09-01T08:45:55.446Z,1016.14
2018-09-01T08:46:56.032Z,1016.09
2018-09-01T08:47:56.615Z,1016.15
2018-09-01T08:48:57.200Z,1016.16
2018-09-01T08:49:57.782Z,1016.16
2018-09-01T08:50:58.363Z,1016.19
2018-09-01T08:51:58.954Z,1016.06
2018-09-01T08:52:59.589Z,1016.09
2018-09-01T08:54:00.172Z,1016.07
2018-09-01T08:55:00.757Z,1016.12
2018-09-01T08:56:01.394Z,1016.13
2018-09-01T08:57:01.980Z,1016.08
2018-09-01T08:58:02.559Z,1016.05
2018-09-01T08:59:03.147Z,1016.09
2018-09-01T09:00:03.732Z,1016.14
2018-09-01T09:01:04.317Z,1016.11
2018-09-01T09:02:04.905Z,1016.11
2018-09-01T09:03:05.542Z,1016.15
2018-09-01T09:04:06.128Z,1016.16
2018-09-01T09:05:06.714Z,1016.06
2018-09-01T09:06:07.343Z,1016.13
2018-09-01T09:07:07.932Z,1016.09
2018-09-01T09:08:08.569Z,1016.15
2018-09-01T09:09:09.200Z,1016.16
2018-09-01T09:10:09.783Z,1016.11
2018-09-01T09:11:10.364Z,1016.14
2018-09-01T09:12:11.002Z,1016.12
2018-09-01T09:13:11.581Z,1016.15
2018-09-01T09:14:12.172Z,1016.13
2018-09-01T09:15:12.756Z,1016.08
2018-09-01T09:16:13.337Z,1016.13
2018-09-01T09:17:13.974Z,1016.10
2018-09-01T09:18:59.278Z,1016.14
2018-09-01T09:19:59.862Z,1016.01
2018-09-01T09:21:00.451Z,1016.11
2018-09-01T09:22:01.037Z,1016.15
2018-09-01T09:23:01.619Z,1016.13
2018-09-01T09:24:02.257Z,1016.10
2018-09-01T09:25:02.840Z,1016.09
2018-09-01T09:26:03.429Z,1016.13
2018-09-01T09:27:04.061Z,1016.13
2018-09-01T09:28:04.650Z,1016.16
2018-09-01T09:29:05.288Z,1016.11
2018-09-01T09:30:05.875Z,1016.14
2018-09-01T09:31:06.511Z,1016.14
2018-09-01T09:32:07.098Z,1016.12
2018-09-01T09:33:07.684Z,1016.10
2018-09-01T09:34:08.265Z,1016.23
2018-09-01T09:35:08.850Z,1016.15
2018-09-01T09:36:09.487Z,1016.17
2018-09-01T09:37:10.115Z,1016.21
2018-09-01T09:38:10.699Z,1016.26
2018-09-01T09:39:11.285Z,1016.24
2018-09-01T09:40:11.866Z,1016.30
2018-09-01T09:41:12.447Z,1016.24
2018-09-01T09:42:13.079Z,1016.21
2018-09-01T09:43:13.669Z,1016.22
2018-09-01T09:44:14.255Z,1016.22
2018-09-01T09:45:14.837Z,1016.26
2018-09-01T09:46:15.478Z,1016.30
2018-09-01T09:47:16.061Z,1016.24
2018-09-01T09:48:16.643Z,1016.25
2018-09-01T09:49:17.232Z,1016.27
2018-09-01T09:50:17.822Z,1016.23
2018-09-01T09:51:18.401Z,1016.24
2018-09-01T09:52:18.991Z,1016.28
2018-09-01T09:53:19.579Z,1016.19
2018-09-01T09:54:20.214Z,1016.24
2018-09-01T09:55:20.799Z,1016.26
2018-09-01T09:56:21.429Z,1016.27
2018-09-01T09:57:22.016Z,1016.20
2018-09-01T09:58:22.738Z,1016.15
2018-09-01T09:59:23.181Z,1016.27
2018-09-01T10:00:23.821Z,1016.21
2018-09-01T10:02:08.971Z,1016.16
2018-09-01T10:03:09.555Z,1016.16
2018-09-01T10:04:10.138Z,1016.26
2018-09-01T10:05:10.779Z,1016.15
2018-09-01T10:06:11.309Z,1016.14
2018-09-01T10:07:11.896Z,1016.22
2018-09-01T10:08:12.489Z,1016.27
2018-09-01T10:09:13.074Z,1016.18
2018-09-01T10:10:13.659Z,1016.30
2018-09-01T10:11:14.243Z,1016.19
2018-09-01T10:12:14.878Z,1016.19
2018-09-01T10:13:15.561Z,1016.26
2018-09-01T10:14:16.192Z,1016.25
2018-09-01T10:15:16.777Z,1016.24
2018-09-01T10:16:17.357Z,1016.19
2018-09-01T10:17:17.943Z,1016.13
2018-09-01T10:18:18.532Z,1016.14
2018-09-01T10:19:19.168Z,1016.20
2018-09-01T10:20:19.826Z,1016.13
2018-09-01T10:21:20.389Z,1016.14
2018-09-01T10:22:20.977Z,1016.15
2018-09-01T10:23:21.562Z,1016.14
2018-09-01T10:24:22.145Z,1016.12
2018-09-01T10:25:22.733Z,1016.17
2018-09-01T10:26:23.325Z,1016.11
2018-09-01T10:27:23.903Z,1016.06
2018-09-01T10:28:24.492Z,1016.09
2018-09-01T10:29:25.073Z,1016.09
2018-09-01T10:30:25.654Z,1016.09
2018-09-01T10:31:26.239Z,1016.07
2018-09-01T10:32:26.830Z,1016.06
2018-09-01T10:33:27.466Z,1016.10
2018-09-01T10:34:28.096Z,1016.04
2018-09-01T10:35:28.689Z,1016.05
2018-09-01T10:36:29.318Z,1016.01
2018-09-01T10:37:29.961Z,1015.98
2018-09-01T10:38:30.594Z,1016.00
2018-09-01T10:39:31.225Z,1015.93
2018-09-01T10:40:31.806Z,1015.97
2018-09-01T10:41:32.397Z,1015.89
2018-09-01T10:42:33.029Z,1015.96
2018-09-01T10:43:33.661Z,1015.90
2018-09-01T10:45:18.807Z,1015.94
2018-09-01T10:46:19.390Z,1015.90
2018-09-01T10:47:19.977Z,1015.86
2018-09-01T10:48:20.561Z,1015.91
2018-09-01T10:49:21.147Z,1015.86
2018-09-01T10:50:21.802Z,1015.91
2018-09-01T10:51:22.412Z,1015.81
2018-09-01T10:52:22.955Z,1015.83
2018-09-01T10:53:23.535Z,1015.80
2018-09-01T10:54:24.171Z,1015.83
2018-09-01T10:55:24.761Z,1015.86
2018-09-01T10:56:25.399Z,1015.80
2018-09-01T10:57:25.987Z,1015.80
2018-09-01T10:58:26.573Z,1015.79
2018-09-01T10:59:27.231Z,1015.80
2018-09-01T11:00:27.741Z,1015.72
2018-09-01T11:01:28.329Z,1015.80
2018-09-01T11:02:28.919Z,1015.74
2018-09-01T11:03:29.503Z,1015.73
2018-09-01T11:04:30.090Z,1015.78
2018-09-01T11:05:30.766Z,1015.75
2018-09-01T11:06:31.306Z,1015.76
2018-09-01T11:07:31.901Z,1015.70
2018-09-01T11:08:32.483Z,1015.67
2018-09-01T11:09:33.072Z,1015.77
2018-09-01T11:10:33.662Z,1015.63
2018-09-01T11:11:34.235Z,1015.68
2018-09-01T11:12:34.816Z,1015.65
2018-09-01T11:13:35.453Z,1015.74
2018-09-01T11:14:36.034Z,1015.66
2018-09-01T11:15:36.623Z,1015.61
2018-09-01T11:16:37.259Z,1015.68
2018-09-01T11:17:37.896Z,1015.69
2018-09-01T11:18:38.475Z,1015.63
2018-09-01T11:19:39.065Z,1015.69
2018-09-01T11:20:39.709Z,1015.66
2018-09-01T11:21:40.239Z,1015.68
2018-09-01T11:22:40.823Z,1015.70
2018-09-01T11:23:41.412Z,1015.64
2018-09-01T11:24:41.995Z,1015.74
2018-09-01T11:25:42.585Z,1015.62
2018-09-01T11:26:43.220Z,1015.66
2018-09-01T11:28:28.331Z,1015.66
2018-09-01T11:29:28.973Z,1015.70
2018-09-01T11:30:29.668Z,1015.66
2018-09-01T11:31:30.468Z,1015.67
2018-09-01T11:32:31.175Z,1015.68
2018-09-01T11:33:31.752Z,1015.73
2018-09-01T11:35:33.940Z,1015.71
2018-09-01T11:36:34.537Z,1015.68
2018-09-01T11:37:35.126Z,1015.68
2018-09-01T11:38:35.863Z,1015.70
2018-09-01T11:39:36.425Z,1015.69
2018-09-01T11:40:37.023Z,1015.74
2018-09-01T11:41:51.479Z,1015.60
2018-09-01T11:42:52.190Z,1015.61
2018-09-01T11:43:52.718Z,1015.61
2018-09-01T11:44:53.329Z,1015.61
2018-09-01T11:45:53.905Z,1015.59
2018-09-01T11:48:57.696Z,1015.57
2018-09-01T11:49:58.336Z,1015.58
2018-09-01T11:50:58.987Z,1015.52
2018-09-01T11:53:01.249Z,1015.56
2018-09-01T11:54:01.794Z,1015.47
2018-09-01T11:55:02.397Z,1015.50
2018-09-01T11:56:02.990Z,1015.45
2018-09-01T11:57:03.620Z,1015.48
2018-09-01T11:58:04.389Z,1015.47
2018-09-01T11:59:04.988Z,1015.45
2018-09-01T12:00:05.592Z,1015.45
2018-09-01T12:01:06.205Z,1015.45
2018-09-01T12:02:06.819Z,1015.43
2018-09-01T12:04:08.993Z,1015.36
2018-09-01T12:05:09.590Z,1015.46
2018-09-01T12:06:10.195Z,1015.47
2018-09-01T12:07:10.846Z,1015.45
2018-09-01T12:08:11.450Z,1015.35
2018-09-01T12:09:12.121Z,1015.43
2018-09-01T12:10:12.654Z,1015.43
2018-09-01T12:11:13.256Z,1015.41
2018-09-01T12:12:13.910Z,1015.38
2018-09-01T12:13:14.567Z,1015.35
2018-09-01T12:14:15.163Z,1015.39
2018-09-01T12:15:15.818Z,1015.43
2018-09-01T12:16:16.420Z,1015.35
2018-09-01T12:17:17.025Z,1015.43
2018-09-01T12:18:17.629Z,1015.35
2018-09-01T12:19:18.231Z,1015.36
2018-09-01T12:20:18.830Z,1015.30
2018-09-01T12:21:19.434Z,1015.26
2018-09-01T12:22:20.154Z,1015.24
2018-09-01T12:23:20.689Z,1015.31
2018-09-01T12:25:05.809Z,1015.34
2018-09-01T12:26:06.412Z,1015.29
2018-09-01T12:27:07.016Z,1015.24
2018-09-01T12:28:07.690Z,1015.27
2018-09-01T12:29:08.223Z,1015.27
2018-09-01T12:30:08.828Z,1015.24
2018-09-01T12:31:09.434Z,1015.22